createdAt,value
2022-10-06T00:01:06.025Z,100239.00
2022-10-06T00:03:33.069Z,100261.00
2022-10-06T00:06:02.744Z,100270.00
2022-10-06T00:08:36.492Z,100263.00
2022-10-06T00:11:04.778Z,100259.00
2022-10-06T00:13:33.016Z,100258.00
2022-10-06T00:16:00.226Z,100257.00
2022-10-06T00:18:29.940Z,100263.00
2022-10-06T00:21:00.376Z,100264.00
2022-10-06T00:23:28.899Z,100264.00
2022-10-06T00:25:56.280Z,100263.00
2022-10-06T00:28:23.290Z,100264.00
2022-10-06T00:30:53.327Z,100263.00
2022-10-06T00:33:20.757Z,100267.00
2022-10-06T00:35:48.467Z,100266.00
2022-10-06T00:38:17.471Z,100268.00
2022-10-06T00:40:50.712Z,100269.00
2022-10-06T00:43:56.826Z,100265.00
2022-10-06T00:46:48.488Z,100267.00
2022-10-06T00:49:31.167Z,100273.00
2022-10-06T00:52:08.941Z,100267.00
2022-10-06T00:54:36.729Z,100272.00
2022-10-06T00:57:05.574Z,100270.00
2022-10-06T00:59:33.347Z,100274.00
2022-10-06T01:02:43.863Z,100276.00
2022-10-06T01:05:22.812Z,100272.00
2022-10-06T01:07:49.780Z,100269.00
2022-10-06T01:10:16.817Z,100280.00
2022-10-06T01:12:43.806Z,100270.00
2022-10-06T01:15:11.134Z,100278.00
2022-10-06T01:17:44.145Z,100280.00
2022-10-06T01:20:17.036Z,100271.00
2022-10-06T01:22:48.176Z,100270.00
2022-10-06T01:25:18.508Z,100267.00
2022-10-06T01:27:53.655Z,100268.00
2022-10-06T01:30:33.306Z,100276.00
2022-10-06T01:33:00.761Z,100280.00
2022-10-06T01:35:27.742Z,100277.00
2022-10-06T01:37:54.828Z,100269.00
2022-10-06T01:40:21.818Z,100267.00
2022-10-06T01:42:48.696Z,100275.00
2022-10-06T01:45:15.699Z,100267.00
2022-10-06T01:47:42.741Z,100271.00
2022-10-06T01:50:09.783Z,100266.00
2022-10-06T01:52:37.206Z,100261.00
2022-10-06T01:55:04.999Z,100269.00
2022-10-06T01:57:32.226Z,100276.00
2022-10-06T01:59:59.104Z,100272.00
2022-10-06T02:02:26.005Z,100274.00
2022-10-06T02:04:52.909Z,100278.00
2022-10-06T02:07:19.863Z,100275.00
2022-10-06T02:09:46.760Z,100276.00
2022-10-06T02:12:13.681Z,100274.00
2022-10-06T02:14:40.598Z,100273.00
2022-10-06T02:17:07.546Z,100281.00
2022-10-06T02:19:35.310Z,100274.00
2022-10-06T02:22:03.158Z,100259.00
2022-10-06T02:24:30.271Z,100271.00
2022-10-06T02:26:57.305Z,100266.00
2022-10-06T02:29:24.230Z,100260.00
2022-10-06T02:31:51.466Z,100283.00
2022-10-06T02:34:18.403Z,100282.00
2022-10-06T02:36:45.327Z,100280.00
2022-10-06T02:39:12.197Z,100282.00
2022-10-06T02:41:39.087Z,100288.00
2022-10-06T02:44:06.095Z,100285.00
2022-10-06T02:46:33.276Z,100290.00
2022-10-06T02:49:00.180Z,100285.00
2022-10-06T02:51:27.200Z,100287.00
2022-10-06T02:53:54.382Z,100291.00
2022-10-06T02:56:25.695Z,100285.00
2022-10-06T02:58:53.945Z,100291.00
2022-10-06T03:01:25.790Z,100298.00
2022-10-06T03:03:53.691Z,100286.00
2022-10-06T03:06:24.763Z,100307.00
2022-10-06T03:09:00.855Z,100284.00
2022-10-06T03:11:37.501Z,100309.00
2022-10-06T03:14:06.452Z,100295.00
2022-10-06T03:16:42.816Z,100300.00
2022-10-06T03:19:10.821Z,100310.00
2022-10-06T03:21:42.195Z,100310.00
2022-10-06T03:24:10.448Z,100308.00
2022-10-06T03:26:41.288Z,100318.00
2022-10-06T03:29:11.463Z,100324.00
2022-10-06T03:31:40.013Z,100332.00
2022-10-06T03:34:08.241Z,100333.00
2022-10-06T03:36:36.648Z,100335.00
2022-10-06T03:39:05.640Z,100333.00
2022-10-06T03:41:36.128Z,100333.00
2022-10-06T03:44:04.447Z,100321.00
2022-10-06T03:46:34.933Z,100339.00
2022-10-06T03:49:02.164Z,100338.00
2022-10-06T03:51:33.774Z,100338.00
2022-10-06T03:54:01.278Z,100349.00
2022-10-06T03:56:35.093Z,100345.00
2022-10-06T03:59:09.200Z,100359.00
2022-10-06T04:01:43.016Z,100368.00
2022-10-06T04:04:11.331Z,100366.00
2022-10-06T04:06:42.519Z,100353.00
2022-10-06T04:09:15.705Z,100356.00
2022-10-06T04:11:44.786Z,100352.00
2022-10-06T04:14:15.486Z,100371.00
2022-10-06T04:16:46.518Z,100360.00
2022-10-06T04:19:15.800Z,100371.00
2022-10-06T04:21:46.923Z,100371.00
2022-10-06T04:24:14.142Z,100374.00
2022-10-06T04:26:46.497Z,100379.00
2022-10-06T04:29:14.567Z,100345.00
2022-10-06T04:31:42.736Z,100377.00
2022-10-06T04:34:15.185Z,100380.00
2022-10-06T04:36:43.371Z,100373.00
2022-10-06T04:39:12.560Z,100363.00
2022-10-06T04:41:42.211Z,100387.00
2022-10-06T04:44:10.238Z,100389.00
2022-10-06T04:46:43.277Z,100386.00
2022-10-06T04:49:14.940Z,100381.00
2022-10-06T04:51:52.901Z,100387.00
2022-10-06T04:54:19.880Z,100390.00
2022-10-06T04:56:46.860Z,100385.00
2022-10-06T04:59:13.816Z,100404.00
2022-10-06T05:01:40.765Z,100396.00
2022-10-06T05:04:07.725Z,100392.00
2022-10-06T05:06:41.307Z,100397.00
2022-10-06T05:09:15.826Z,100405.00
2022-10-06T05:11:42.886Z,100413.00
2022-10-06T05:14:10.026Z,100411.00
2022-10-06T05:16:38.243Z,100418.00
2022-10-06T05:19:06.068Z,100418.00
2022-10-06T05:21:33.638Z,100402.00
2022-10-06T05:24:01.100Z,100387.00
2022-10-06T05:26:31.834Z,100399.00
2022-10-06T05:28:58.788Z,100422.00
2022-10-06T05:31:29.036Z,100411.00
2022-10-06T05:33:58.129Z,100425.00
2022-10-06T05:36:31.884Z,100422.00
2022-10-06T05:38:59.800Z,100420.00
2022-10-06T05:41:31.855Z,100426.00
2022-10-06T05:43:58.954Z,100435.00
2022-10-06T05:46:32.082Z,100451.00
2022-10-06T05:49:00.791Z,100448.00
2022-10-06T05:51:31.507Z,100441.00
2022-10-06T05:54:02.711Z,100456.00
2022-10-06T05:56:32.997Z,100474.00
2022-10-06T05:59:01.361Z,100477.00
2022-10-06T06:01:41.554Z,100473.00
2022-10-06T06:04:13.454Z,100471.00
2022-10-06T06:06:46.328Z,100485.00
2022-10-06T06:09:15.872Z,100491.00
2022-10-06T06:11:49.044Z,100485.00
2022-10-06T06:14:18.206Z,100483.00
2022-10-06T06:16:46.445Z,100494.00
2022-10-06T06:19:14.406Z,100506.00
2022-10-06T06:21:41.501Z,100510.00
2022-10-06T06:24:08.622Z,100514.00
2022-10-06T06:26:37.935Z,100511.00
2022-10-06T06:29:06.474Z,100500.00
2022-10-06T06:31:38.516Z,100533.00
2022-10-06T06:34:07.053Z,100541.00
2022-10-06T06:36:41.008Z,100540.00
2022-10-06T06:39:11.757Z,100524.00
2022-10-06T06:41:48.866Z,100551.00
2022-10-06T06:44:16.298Z,100533.00
2022-10-06T06:46:47.526Z,100476.00
2022-10-06T06:49:14.866Z,100553.00
2022-10-06T06:51:45.108Z,100540.00
2022-10-06T06:54:12.949Z,100566.00
2022-10-06T06:56:40.220Z,100568.00
2022-10-06T06:59:13.487Z,100582.00
2022-10-06T07:01:44.459Z,100572.00
2022-10-06T07:04:14.389Z,100588.00
2022-10-06T07:06:44.690Z,100578.00
2022-10-06T07:09:11.658Z,100591.00
2022-10-06T07:11:40.407Z,100602.00
2022-10-06T07:14:12.478Z,100606.00
2022-10-06T07:16:58.147Z,100595.00
2022-10-06T07:19:40.621Z,100612.00
2022-10-06T07:22:25.718Z,100614.00
2022-10-06T07:25:12.923Z,100625.00
2022-10-06T07:27:45.950Z,100607.00
2022-10-06T07:30:26.366Z,100617.00
2022-10-06T07:32:54.793Z,100640.00
2022-10-06T07:35:24.312Z,100637.00
2022-10-06T07:37:57.235Z,100655.00
2022-10-06T07:40:28.160Z,100660.00
2022-10-06T07:42:55.071Z,100662.00
2022-10-06T07:45:46.380Z,100674.00
2022-10-06T07:48:24.287Z,100681.00
2022-10-06T07:50:52.694Z,100685.00
2022-10-06T07:53:20.377Z,100690.00
2022-10-06T07:55:49.675Z,100679.00
2022-10-06T07:58:24.001Z,100674.00
2022-10-06T08:00:54.761Z,100679.00
2022-10-06T08:03:22.346Z,100671.00
2022-10-06T08:05:58.971Z,100696.00
2022-10-06T08:08:26.334Z,100694.00
2022-10-06T08:10:56.026Z,100702.00
2022-10-06T08:13:23.976Z,100687.00
2022-10-06T08:15:52.171Z,100713.00
2022-10-06T08:18:41.371Z,100702.00
2022-10-06T08:21:20.909Z,100708.00
2022-10-06T08:23:50.793Z,100722.00
2022-10-06T08:26:20.814Z,100738.00
2022-10-06T08:28:55.309Z,100749.00
2022-10-06T08:31:23.611Z,100746.00
2022-10-06T08:33:56.735Z,100755.00
2022-10-06T08:36:30.990Z,100744.00
2022-10-06T08:38:58.778Z,100755.00
2022-10-06T08:41:46.600Z,100752.00
2022-10-06T08:44:18.103Z,100766.00
2022-10-06T08:47:02.900Z,100778.00
2022-10-06T08:49:44.798Z,100772.00
2022-10-06T08:52:46.191Z,100791.00
2022-10-06T08:55:41.968Z,100775.00
2022-10-06T08:58:34.849Z,100787.00
2022-10-06T09:01:29.194Z,100815.00
2022-10-06T09:04:01.955Z,100811.00
2022-10-06T09:06:41.040Z,100820.00
2022-10-06T09:09:33.631Z,100829.00
2022-10-06T09:12:23.714Z,100813.00
2022-10-06T09:15:37.681Z,100810.00
2022-10-06T09:18:29.161Z,100825.00
2022-10-06T09:21:06.526Z,100803.00
2022-10-06T09:23:48.129Z,100823.00
2022-10-06T09:26:31.354Z,100828.00
2022-10-06T09:29:00.014Z,100832.00
2022-10-06T09:31:43.244Z,100843.00
2022-10-06T09:34:39.155Z,100832.00
2022-10-06T09:37:13.545Z,100863.00
2022-10-06T09:39:51.549Z,100888.00
2022-10-06T09:42:28.296Z,100875.00
2022-10-06T09:45:24.186Z,100893.00
2022-10-06T09:47:51.352Z,100888.00
2022-10-06T09:50:27.589Z,100902.00
2022-10-06T09:53:00.768Z,100908.00
2022-10-06T09:55:40.398Z,100910.00
2022-10-06T09:58:22.900Z,100916.00
2022-10-06T10:01:12.206Z,100932.00
2022-10-06T10:06:44.904Z,100946.00
2022-10-06T10:09:22.110Z,100954.00
2022-10-06T10:12:25.285Z,100962.00
2022-10-06T10:14:59.273Z,100960.00
2022-10-06T10:17:51.235Z,100962.00
2022-10-06T10:20:37.534Z,100981.00
2022-10-06T10:23:31.658Z,100982.00
2022-10-06T10:26:20.970Z,100971.00
2022-10-06T10:29:22.353Z,100978.00
2022-10-06T10:32:11.919Z,100991.00
2022-10-06T10:34:47.356Z,100979.00
2022-10-06T10:37:42.997Z,100992.00
2022-10-06T10:40:32.228Z,100992.00
2022-10-06T10:43:33.971Z,100989.00
2022-10-06T10:46:28.748Z,100997.00
2022-10-06T10:49:12.748Z,101000.00
2022-10-06T10:52:23.649Z,101010.00
2022-10-06T10:55:06.900Z,101004.00
2022-10-06T10:57:41.323Z,101012.00
2022-10-06T11:00:12.794Z,101015.00
2022-10-06T11:02:41.057Z,101014.00
2022-10-06T11:05:49.221Z,101010.00
2022-10-06T11:08:38.467Z,101027.00
2022-10-06T11:11:38.492Z,101024.00
2022-10-06T11:14:37.024Z,101012.00
2022-10-06T11:17:44.960Z,101039.00
2022-10-06T11:20:23.605Z,101044.00
2022-10-06T11:23:06.731Z,101056.00
2022-10-06T11:26:14.334Z,101053.00
2022-10-06T11:29:02.271Z,101059.00
2022-10-06T11:31:45.617Z,101052.00
2022-10-06T11:34:13.734Z,101066.00
2022-10-06T11:37:04.512Z,101067.00
2022-10-06T11:40:14.284Z,101066.00
2022-10-06T11:42:58.282Z,101076.00
2022-10-06T11:45:54.861Z,101074.00
2022-10-06T11:48:32.967Z,101067.00
2022-10-06T11:51:24.935Z,101071.00
2022-10-06T11:53:53.284Z,101077.00
2022-10-06T11:56:20.166Z,101082.00
2022-10-06T11:58:56.507Z,101076.00
2022-10-06T12:01:34.959Z,101089.00
2022-10-06T12:04:10.838Z,101089.00
2022-10-06T12:06:46.427Z,101094.00
2022-10-06T12:09:44.701Z,101095.00
2022-10-06T12:12:14.766Z,101091.00
2022-10-06T12:18:12.818Z,101110.00
2022-10-06T12:21:06.306Z,101116.00
2022-10-06T12:24:02.124Z,101106.00
2022-10-06T12:26:45.792Z,101101.00
2022-10-06T12:29:40.023Z,101106.00
2022-10-06T12:33:05.784Z,101123.00
2022-10-06T12:35:35.509Z,101136.00
2022-10-06T12:38:30.558Z,101136.00
2022-10-06T12:41:00.489Z,101137.00
2022-10-06T12:43:32.432Z,101145.00
2022-10-06T12:46:16.232Z,101150.00
2022-10-06T12:48:55.473Z,101149.00
2022-10-06T12:51:46.897Z,101148.00
2022-10-06T12:54:28.154Z,101143.00
2022-10-06T12:57:17.984Z,101154.00
2022-10-06T12:59:45.133Z,101154.00
2022-10-06T13:02:21.061Z,101161.00
2022-10-06T13:05:00.906Z,101142.00
2022-10-06T13:07:31.801Z,101160.00
2022-10-06T13:10:14.403Z,101167.00
2022-10-06T13:12:47.415Z,101169.00
2022-10-06T13:15:36.682Z,101164.00
2022-10-06T13:18:19.594Z,101169.00
2022-10-06T13:20:53.974Z,101179.00
2022-10-06T13:23:34.279Z,101174.00
2022-10-06T13:26:30.973Z,101184.00
2022-10-06T13:29:00.129Z,101189.00
2022-10-06T13:31:31.405Z,101186.00
2022-10-06T13:34:10.475Z,101195.00
2022-10-06T13:36:42.098Z,101205.00
2022-10-06T13:39:24.619Z,101173.00
2022-10-06T13:42:24.228Z,101211.00
2022-10-06T13:45:00.538Z,101203.00
2022-10-06T13:47:30.018Z,101217.00
2022-10-06T13:50:08.131Z,101220.00
2022-10-06T13:52:48.721Z,101220.00
2022-10-06T13:55:26.731Z,101222.00
2022-10-06T13:58:05.151Z,101229.00
2022-10-06T14:00:55.977Z,101225.00
2022-10-06T14:06:16.370Z,101236.00
2022-10-06T14:08:50.715Z,101228.00
2022-10-06T14:11:26.515Z,101239.00
2022-10-06T14:14:02.856Z,101246.00
2022-10-06T14:16:33.112Z,101240.00
2022-10-06T14:19:03.834Z,101251.00
2022-10-06T14:21:42.438Z,101247.00
2022-10-06T14:24:19.431Z,101246.00
2022-10-06T14:26:52.183Z,101243.00
2022-10-06T14:29:19.698Z,101253.00
2022-10-06T14:31:48.127Z,101251.00
2022-10-06T14:34:21.470Z,101259.00
2022-10-06T14:36:55.218Z,101259.00
2022-10-06T14:39:22.575Z,101270.00
2022-10-06T14:41:49.749Z,101267.00
2022-10-06T14:44:16.680Z,101273.00
2022-10-06T14:46:48.163Z,101245.00
2022-10-06T14:49:16.091Z,101271.00
2022-10-06T14:51:44.506Z,101274.00
2022-10-06T14:54:12.454Z,101273.00
2022-10-06T14:56:41.263Z,101288.00
2022-10-06T14:59:12.555Z,101283.00
2022-10-06T15:01:40.539Z,101289.00
2022-10-06T15:04:11.662Z,101299.00
2022-10-06T15:06:58.656Z,101296.00
2022-10-06T15:09:25.925Z,101301.00
2022-10-06T15:11:54.217Z,101296.00
2022-10-06T15:14:24.902Z,101308.00
2022-10-06T15:16:52.323Z,101311.00
2022-10-06T15:19:19.286Z,101313.00
2022-10-06T15:21:46.559Z,101320.00
2022-10-06T15:24:17.869Z,101317.00
2022-10-06T15:27:05.603Z,101332.00
2022-10-06T15:29:37.267Z,101306.00
2022-10-06T15:32:06.330Z,101337.00
2022-10-06T15:34:34.671Z,101343.00
2022-10-06T15:37:02.620Z,101342.00
2022-10-06T15:39:34.105Z,101356.00
2022-10-06T15:42:01.072Z,101349.00
2022-10-06T15:44:34.038Z,101352.00
2022-10-06T15:47:01.257Z,101356.00
2022-10-06T15:49:34.452Z,101362.00
2022-10-06T15:52:03.515Z,101359.00
2022-10-06T15:54:37.551Z,101343.00
2022-10-06T15:57:08.611Z,101363.00
2022-10-06T15:59:36.437Z,101373.00
2022-10-06T16:02:15.674Z,101380.00
2022-10-06T16:04:44.590Z,101374.00
2022-10-06T16:07:19.099Z,101382.00
2022-10-06T16:09:51.787Z,101389.00
2022-10-06T16:12:24.799Z,101366.00
2022-10-06T16:14:52.405Z,101398.00
2022-10-06T16:17:19.518Z,101399.00
2022-10-06T16:19:47.294Z,101410.00
2022-10-06T16:22:19.259Z,101403.00
2022-10-06T16:24:46.205Z,101405.00
2022-10-06T16:27:15.817Z,101390.00
2022-10-06T16:29:43.126Z,101416.00
2022-10-06T16:32:10.820Z,101389.00
2022-10-06T16:34:37.814Z,101413.00
2022-10-06T16:37:04.907Z,101427.00
2022-10-06T16:39:32.022Z,101438.00
2022-10-06T16:41:58.957Z,101435.00
2022-10-06T16:44:25.906Z,101445.00
2022-10-06T16:46:52.856Z,101449.00
2022-10-06T16:49:19.872Z,101437.00
2022-10-06T16:51:46.995Z,101457.00
2022-10-06T16:54:17.056Z,101462.00
2022-10-06T16:56:48.469Z,101469.00
2022-10-06T16:59:21.514Z,101470.00
2022-10-06T17:01:49.556Z,101471.00
2022-10-06T17:04:25.225Z,101480.00
2022-10-06T17:06:56.929Z,101487.00
2022-10-06T17:09:29.618Z,101484.00
2022-10-06T17:12:03.382Z,101478.00
2022-10-06T17:14:33.250Z,101490.00
2022-10-06T17:17:00.864Z,101487.00
2022-10-06T17:19:30.319Z,101494.00
2022-10-06T17:21:59.991Z,101491.00
2022-10-06T17:24:29.611Z,101491.00
2022-10-06T17:26:57.592Z,101492.00
2022-10-06T17:29:26.594Z,101493.00
2022-10-06T17:31:56.234Z,101487.00
2022-10-06T17:34:26.475Z,101478.00
2022-10-06T17:36:57.640Z,101487.00
2022-10-06T17:39:24.733Z,101492.00
2022-10-06T17:41:53.861Z,101483.00
2022-10-06T17:44:26.039Z,101495.00
2022-10-06T17:46:57.402Z,101498.00
2022-10-06T17:49:26.099Z,101492.00
2022-10-06T17:51:55.341Z,101501.00
2022-10-06T17:54:26.745Z,101490.00
2022-10-06T17:56:56.769Z,101486.00
2022-10-06T17:59:33.865Z,101493.00
2022-10-06T18:02:03.072Z,101484.00
2022-10-06T18:04:30.910Z,101489.00
2022-10-06T18:06:58.151Z,101512.00
2022-10-06T18:09:26.051Z,101510.00
2022-10-06T18:11:57.683Z,101516.00
2022-10-06T18:14:28.232Z,101505.00
2022-10-06T18:17:00.345Z,101513.00
2022-10-06T18:19:33.938Z,101509.00
2022-10-06T18:22:10.232Z,101517.00
2022-10-06T18:24:39.909Z,101504.00
2022-10-06T18:27:08.096Z,101527.00
2022-10-06T18:29:38.604Z,101517.00
2022-10-06T18:37:41.934Z,101520.00
2022-10-06T18:40:11.175Z,101522.00
2022-10-06T18:42:39.192Z,101527.00
2022-10-06T18:45:26.439Z,101534.00
2022-10-06T18:48:11.962Z,101533.00
2022-10-06T18:50:39.470Z,101528.00
2022-10-06T18:53:06.662Z,101518.00
2022-10-06T18:55:34.974Z,101525.00
2022-10-06T18:58:03.235Z,101524.00
2022-10-06T19:00:31.165Z,101537.00
2022-10-06T19:02:58.164Z,101543.00
2022-10-06T19:05:25.443Z,101533.00
2022-10-06T19:07:54.011Z,101546.00
2022-10-06T19:10:21.510Z,101551.00
2022-10-06T19:12:49.454Z,101552.00
2022-10-06T19:15:20.234Z,101556.00
2022-10-06T19:17:49.290Z,101547.00
2022-10-06T19:20:16.718Z,101542.00
2022-10-06T19:22:43.656Z,101555.00
2022-10-06T19:25:11.282Z,101544.00
2022-10-06T19:27:38.230Z,101551.00
2022-10-06T19:30:06.313Z,101552.00
2022-10-06T19:32:33.435Z,101538.00
2022-10-06T19:35:00.836Z,101549.00
2022-10-06T19:37:30.943Z,101552.00
2022-10-06T19:39:58.452Z,101551.00
2022-10-06T19:42:44.179Z,101545.00
2022-10-06T19:45:12.144Z,101557.00
2022-10-06T19:47:40.403Z,101557.00
2022-10-06T19:50:11.992Z,101554.00
2022-10-06T19:52:41.250Z,101554.00
2022-10-06T19:55:08.519Z,101519.00
2022-10-06T19:57:35.780Z,101558.00
2022-10-06T20:00:04.226Z,101548.00
2022-10-06T20:02:31.329Z,101549.00
2022-10-06T20:04:58.242Z,101556.00
2022-10-06T20:07:27.708Z,101557.00
2022-10-06T20:09:55.610Z,101565.00
2022-10-06T20:12:25.167Z,101549.00
2022-10-06T20:14:56.005Z,101549.00
2022-10-06T20:17:23.191Z,101556.00
2022-10-06T20:19:55.187Z,101541.00
2022-10-06T20:22:25.007Z,101562.00
2022-10-06T20:24:52.278Z,101566.00
2022-10-06T20:27:19.974Z,101570.00
2022-10-06T20:29:46.958Z,101566.00
2022-10-06T20:32:14.180Z,101566.00
2022-10-06T20:34:42.152Z,101559.00
2022-10-06T20:37:09.091Z,101567.00
2022-10-06T20:39:54.401Z,101570.00
2022-10-06T20:42:21.733Z,101572.00
2022-10-06T20:44:49.098Z,101571.00
2022-10-06T20:47:18.761Z,101576.00
2022-10-06T20:49:45.713Z,101582.00
2022-10-06T20:52:15.668Z,101581.00
2022-10-06T20:54:42.648Z,101585.00
2022-10-06T20:57:09.821Z,101580.00
2022-10-06T20:59:37.893Z,101555.00
2022-10-06T21:02:06.917Z,101583.00
2022-10-06T21:04:34.928Z,101585.00
2022-10-06T21:07:05.798Z,101578.00
2022-10-06T21:09:32.951Z,101578.00
2022-10-06T21:12:00.275Z,101561.00
2022-10-06T21:14:27.261Z,101580.00
2022-10-06T21:16:54.501Z,101583.00
2022-10-06T21:19:21.574Z,101570.00
2022-10-06T21:21:50.351Z,101575.00
2022-10-06T21:24:17.948Z,101574.00
2022-10-06T21:26:47.978Z,101569.00
2022-10-06T21:29:16.244Z,101565.00
2022-10-06T21:31:45.136Z,101576.00
2022-10-06T21:34:14.451Z,101573.00
2022-10-06T21:36:43.471Z,101575.00
2022-10-06T21:39:12.062Z,101581.00
2022-10-06T21:41:40.219Z,101575.00
2022-10-06T21:44:19.015Z,101584.00
2022-10-06T21:46:55.093Z,101578.00
2022-10-06T21:49:25.058Z,101579.00
2022-10-06T21:51:55.735Z,101582.00
2022-10-06T21:54:23.670Z,101574.00
2022-10-06T21:56:51.248Z,101571.00
2022-10-06T21:59:18.292Z,101580.00
2022-10-06T22:01:47.517Z,101574.00
2022-10-06T22:04:15.599Z,101576.00
2022-10-06T22:06:44.603Z,101575.00
2022-10-06T22:09:18.481Z,101569.00
2022-10-06T22:11:45.847Z,101569.00
2022-10-06T22:14:16.214Z,101565.00
2022-10-06T22:16:43.627Z,101580.00
2022-10-06T22:19:13.344Z,101562.00
2022-10-06T22:21:43.852Z,101555.00
2022-10-06T22:24:21.772Z,101557.00
2022-10-06T22:27:04.915Z,101554.00
2022-10-06T22:29:31.822Z,101560.00
2022-10-06T22:31:58.893Z,101564.00
2022-10-06T22:34:26.422Z,101555.00
2022-10-06T22:36:53.329Z,101552.00
2022-10-06T22:39:20.292Z,101560.00
2022-10-06T22:41:47.206Z,101561.00
2022-10-06T22:44:14.165Z,101559.00
2022-10-06T22:46:41.222Z,101556.00
2022-10-06T22:49:08.543Z,101563.00
2022-10-06T22:51:36.010Z,101466.00
2022-10-06T22:54:04.219Z,101554.00
2022-10-06T22:56:33.645Z,101562.00
2022-10-06T22:59:01.401Z,101562.00
2022-10-06T23:01:29.567Z,101556.00
2022-10-06T23:03:57.574Z,101558.00
2022-10-06T23:06:25.428Z,101562.00
2022-10-06T23:08:52.905Z,101560.00
2022-10-06T23:11:21.837Z,101529.00
2022-10-06T23:13:50.499Z,101550.00
2022-10-06T23:16:19.658Z,101557.00
2022-10-06T23:18:47.926Z,101558.00
2022-10-06T23:21:22.204Z,101553.00
2022-10-06T23:23:55.609Z,101552.00
2022-10-06T23:26:24.374Z,101552.00
2022-10-06T23:29:00.609Z,101548.00
2022-10-06T23:31:29.330Z,101549.00
2022-10-06T23:33:56.837Z,101536.00
2022-10-06T23:36:24.202Z,101547.00
2022-10-06T23:38:51.343Z,101554.00
2022-10-06T23:41:18.374Z,101553.00
2022-10-06T23:43:45.302Z,101550.00
2022-10-06T23:46:13.409Z,101557.00
2022-10-06T23:48:40.624Z,101562.00
2022-10-06T23:51:13.814Z,101559.00
2022-10-06T23:53:41.900Z,101561.00
2022-10-06T23:56:10.038Z,101556.00
2022-10-06T23:58:37.689Z,101556.00
